首页
METAR-TAF:

METAR-TAF

机场 :

卢森堡-芬德尔国际机场

卢森堡, 卢森堡

纬度: 49-37N, 经度: 006-13E, 海拔: 376米

当前天气观测

该预报发布于32分钟前的08:50 UTC
风速7节,风向东南,在之间变化
温度 18°C
湿度 52%
气压 1019 hPa
能见度10公里或以上
1500米以下无云,无积雨云

METAR: ELLX 190850Z 14007KT 090V170 CAVOK 18/08 Q1019 NOSIG

时间: 11:22 (09:22 UTC)

预报

该预报发布于4小时和22分钟前的05:00 UTC
预报有效从19日的 06点(UTC)到 20日的 12点(UTC)
风速10节,风向
能见度10公里或以上
1500米以下无云,无积雨云

TAF: ELLX 190500Z 1906/2012 09010KT CAVOK

超过4000个机场的气象观测和天气预报(METAR&TAF报告)。

可查询的气象台以黄色和红色小点在地图上表示。

将鼠标移到小点上方,可查看气象台名称。

然后点击查看天气观测和预报。

如需切换地图:点击带黑十字的绿色按钮放大地图;点击带横线的绿色按钮缩小地图;或者点击绿色箭头查看邻近地区的地图。


METAR-TAF: